sensor_id;sensor_type;location;lat;lon;timestamp;P1;durP1;ratioP1;P2;durP2;ratioP2
16579;SDS011;8402;51.466;6.806;2023-04-28T00:00:00;11.27;;;5.70;;
16579;SDS011;8402;51.466;6.806;2023-04-28T00:02:31;12.37;;;6.37;;
16579;SDS011;8402;51.466;6.806;2023-04-28T00:05:01;14.77;;;6.87;;
16579;SDS011;8402;51.466;6.806;2023-04-28T00:07:34;12.37;;;6.40;;
16579;SDS011;8402;51.466;6.806;2023-04-28T00:10:05;12.47;;;6.30;;
16579;SDS011;8402;51.466;6.806;2023-04-28T00:12:36;13.23;;;6.30;;
16579;SDS011;8402;51.466;6.806;2023-04-28T00:15:07;11.83;;;6.50;;
16579;SDS011;8402;51.466;6.806;2023-04-28T00:17:38;12.10;;;6.53;;
16579;SDS011;8402;51.466;6.806;2023-04-28T00:20:09;12.00;;;6.70;;
16579;SDS011;8402;51.466;6.806;2023-04-28T00:22:42;13.00;;;7.17;;
16579;SDS011;8402;51.466;6.806;2023-04-28T00:25:12;12.27;;;6.40;;
16579;SDS011;8402;51.466;6.806;2023-04-28T00:27:42;14.70;;;7.37;;
16579;SDS011;8402;51.466;6.806;2023-04-28T00:30:13;12.27;;;6.73;;
16579;SDS011;8402;51.466;6.806;2023-04-28T00:32:43;11.20;;;6.73;;
16579;SDS011;8402;51.466;6.806;2023-04-28T00:35:13;13.17;;;6.83;;
16579;SDS011;8402;51.466;6.806;2023-04-28T00:37:46;14.67;;;7.03;;
16579;SDS011;8402;51.466;6.806;2023-04-28T00:40:16;13.00;;;6.77;;
16579;SDS011;8402;51.466;6.806;2023-04-28T00:42:46;19.00;;;7.57;;
16579;SDS011;8402;51.466;6.806;2023-04-28T00:45:16;11.63;;;6.87;;
16579;SDS011;8402;51.466;6.806;2023-04-28T00:47:46;15.40;;;7.20;;
16579;SDS011;8402;51.466;6.806;2023-04-28T00:50:16;14.77;;;7.73;;
16579;SDS011;8402;51.466;6.806;2023-04-28T00:52:49;14.53;;;7.63;;
16579;SDS011;8402;51.466;6.806;2023-04-28T00:55:20;13.67;;;7.03;;
16579;SDS011;8402;51.466;6.806;2023-04-28T00:57:50;15.30;;;7.17;;
16579;SDS011;8402;51.466;6.806;2023-04-28T01:00:20;11.33;;;6.70;;
16579;SDS011;8402;51.466;6.806;2023-04-28T01:02:51;14.30;;;7.50;;
16579;SDS011;8402;51.466;6.806;2023-04-28T01:05:24;12.67;;;7.13;;
16579;SDS011;8402;51.466;6.806;2023-04-28T01:07:57;14.13;;;7.87;;
16579;SDS011;8402;51.466;6.806;2023-04-28T01:10:27;11.17;;;6.53;;
16579;SDS011;8402;51.466;6.806;2023-04-28T01:12:57;16.17;;;7.73;;
16579;SDS011;8402;51.466;6.806;2023-04-28T01:15:27;14.50;;;7.87;;
16579;SDS011;8402;51.466;6.806;2023-04-28T01:17:58;12.83;;;7.13;;
16579;SDS011;8402;51.466;6.806;2023-04-28T01:20:28;13.63;;;7.37;;
16579;SDS011;8402;51.466;6.806;2023-04-28T01:23:00;14.33;;;7.60;;
16579;SDS011;8402;51.466;6.806;2023-04-28T01:25:33;12.30;;;7.67;;
16579;SDS011;8402;51.466;6.806;2023-04-28T01:28:03;13.97;;;7.80;;
16579;SDS011;8402;51.466;6.806;2023-04-28T01:30:36;13.80;;;7.57;;
16579;SDS011;8402;51.466;6.806;2023-04-28T01:33:06;12.97;;;8.17;;
16579;SDS011;8402;51.466;6.806;2023-04-28T01:35:36;13.03;;;7.37;;
16579;SDS011;8402;51.466;6.806;2023-04-28T01:38:06;12.17;;;7.10;;
16579;SDS011;8402;51.466;6.806;2023-04-28T01:40:38;14.23;;;7.63;;
16579;SDS011;8402;51.466;6.806;2023-04-28T01:43:11;17.07;;;7.60;;
16579;SDS011;8402;51.466;6.806;2023-04-28T01:45:41;16.63;;;7.90;;
16579;SDS011;8402;51.466;6.806;2023-04-28T01:48:12;18.13;;;7.83;;
16579;SDS011;8402;51.466;6.806;2023-04-28T01:50:42;13.33;;;7.70;;
16579;SDS011;8402;51.466;6.806;2023-04-28T01:53:12;18.43;;;8.43;;
16579;SDS011;8402;51.466;6.806;2023-04-28T01:58:36;16.43;;;8.07;;
16579;SDS011;8402;51.466;6.806;2023-04-28T02:01:06;13.30;;;8.30;;
16579;SDS011;8402;51.466;6.806;2023-04-28T02:03:37;15.50;;;8.50;;
16579;SDS011;8402;51.466;6.806;2023-04-28T02:06:07;14.07;;;8.23;;
16579;SDS011;8402;51.466;6.806;2023-04-28T02:08:36;14.73;;;8.40;;
16579;SDS011;8402;51.466;6.806;2023-04-28T02:11:09;17.87;;;8.73;;
16579;SDS011;8402;51.466;6.806;2023-04-28T02:13:39;17.60;;;8.57;;
16579;SDS011;8402;51.466;6.806;2023-04-28T02:16:09;15.47;;;8.90;;
16579;SDS011;8402;51.466;6.806;2023-04-28T02:18:39;15.43;;;8.30;;
16579;SDS011;8402;51.466;6.806;2023-04-28T02:21:09;17.83;;;8.80;;
16579;SDS011;8402;51.466;6.806;2023-04-28T02:23:39;15.13;;;9.00;;
16579;SDS011;8402;51.466;6.806;2023-04-28T02:26:12;18.30;;;9.57;;
16579;SDS011;8402;51.466;6.806;2023-04-28T02:28:42;15.10;;;8.90;;
16579;SDS011;8402;51.466;6.806;2023-04-28T02:31:12;15.10;;;8.90;;
16579;SDS011;8402;51.466;6.806;2023-04-28T02:33:42;16.63;;;8.67;;
16579;SDS011;8402;51.466;6.806;2023-04-28T02:36:12;15.57;;;9.43;;
16579;SDS011;8402;51.466;6.806;2023-04-28T02:38:42;15.93;;;8.67;;
16579;SDS011;8402;51.466;6.806;2023-04-28T02:41:14;17.30;;;9.17;;
16579;SDS011;8402;51.466;6.806;2023-04-28T02:43:44;22.67;;;9.73;;
16579;SDS011;8402;51.466;6.806;2023-04-28T02:46:14;17.40;;;9.67;;
16579;SDS011;8402;51.466;6.806;2023-04-28T02:48:44;18.10;;;9.30;;
16579;SDS011;8402;51.466;6.806;2023-04-28T02:51:14;16.17;;;9.27;;
16579;SDS011;8402;51.466;6.806;2023-04-28T02:53:44;18.03;;;9.80;;
16579;SDS011;8402;51.466;6.806;2023-04-28T02:56:16;17.57;;;9.37;;
16579;SDS011;8402;51.466;6.806;2023-04-28T02:58:46;16.40;;;9.50;;
16579;SDS011;8402;51.466;6.806;2023-04-28T03:01:16;20.80;;;9.90;;
16579;SDS011;8402;51.466;6.806;2023-04-28T03:03:46;18.63;;;9.93;;
16579;SDS011;8402;51.466;6.806;2023-04-28T03:06:17;20.17;;;10.00;;
16579;SDS011;8402;51.466;6.806;2023-04-28T03:08:46;19.73;;;10.33;;
16579;SDS011;8402;51.466;6.806;2023-04-28T03:11:19;19.77;;;10.63;;
16579;SDS011;8402;51.466;6.806;2023-04-28T03:13:49;18.43;;;10.13;;
16579;SDS011;8402;51.466;6.806;2023-04-28T03:16:19;18.50;;;9.50;;
16579;SDS011;8402;51.466;6.806;2023-04-28T03:18:48;17.80;;;10.20;;
16579;SDS011;8402;51.466;6.806;2023-04-28T03:21:18;16.43;;;9.90;;
16579;SDS011;8402;51.466;6.806;2023-04-28T03:23:48;20.37;;;10.67;;
16579;SDS011;8402;51.466;6.806;2023-04-28T03:26:21;18.73;;;10.53;;
16579;SDS011;8402;51.466;6.806;2023-04-28T03:28:51;17.07;;;10.03;;
16579;SDS011;8402;51.466;6.806;2023-04-28T03:31:22;24.33;;;10.63;;
16579;SDS011;8402;51.466;6.806;2023-04-28T03:33:52;21.47;;;10.20;;
16579;SDS011;8402;51.466;6.806;2023-04-28T03:36:22;18.83;;;9.57;;
16579;SDS011;8402;51.466;6.806;2023-04-28T03:38:53;19.33;;;10.23;;
16579;SDS011;8402;51.466;6.806;2023-04-28T03:41:25;19.63;;;10.70;;
16579;SDS011;8402;51.466;6.806;2023-04-28T03:43:55;15.73;;;9.30;;
16579;SDS011;8402;51.466;6.806;2023-04-28T03:46:25;22.10;;;10.80;;
16579;SDS011;8402;51.466;6.806;2023-04-28T03:48:55;16.63;;;9.43;;
16579;SDS011;8402;51.466;6.806;2023-04-28T03:51:25;17.80;;;10.83;;
16579;SDS011;8402;51.466;6.806;2023-04-28T03:53:56;20.80;;;9.77;;
16579;SDS011;8402;51.466;6.806;2023-04-28T03:56:28;17.30;;;10.10;;
16579;SDS011;8402;51.466;6.806;2023-04-28T03:58:58;15.33;;;9.10;;
16579;SDS011;8402;51.466;6.806;2023-04-28T04:01:28;18.03;;;9.80;;
16579;SDS011;8402;51.466;6.806;2023-04-28T04:03:58;18.03;;;9.87;;
16579;SDS011;8402;51.466;6.806;2023-04-28T04:06:28;18.60;;;10.73;;
16579;SDS011;8402;51.466;6.806;2023-04-28T04:08:59;18.83;;;9.37;;
16579;SDS011;8402;51.466;6.806;2023-04-28T04:11:32;18.70;;;10.43;;
16579;SDS011;8402;51.466;6.806;2023-04-28T04:14:01;18.17;;;9.77;;
16579;SDS011;8402;51.466;6.806;2023-04-28T04:16:31;17.33;;;9.40;;
16579;SDS011;8402;51.466;6.806;2023-04-28T04:19:01;21.23;;;9.63;;
16579;SDS011;8402;51.466;6.806;2023-04-28T04:21:31;18.70;;;10.27;;
16579;SDS011;8402;51.466;6.806;2023-04-28T04:24:01;19.77;;;9.60;;
16579;SDS011;8402;51.466;6.806;2023-04-28T04:26:35;19.17;;;9.93;;
16579;SDS011;8402;51.466;6.806;2023-04-28T04:29:04;17.93;;;9.50;;
16579;SDS011;8402;51.466;6.806;2023-04-28T04:31:35;18.03;;;9.67;;
16579;SDS011;8402;51.466;6.806;2023-04-28T04:34:05;17.77;;;9.73;;
16579;SDS011;8402;51.466;6.806;2023-04-28T04:36:35;16.83;;;9.40;;
16579;SDS011;8402;51.466;6.806;2023-04-28T04:39:05;19.23;;;10.67;;
16579;SDS011;8402;51.466;6.806;2023-04-28T04:41:37;19.40;;;10.03;;
16579;SDS011;8402;51.466;6.806;2023-04-28T04:44:07;17.17;;;9.40;;
16579;SDS011;8402;51.466;6.806;2023-04-28T04:46:39;17.77;;;9.57;;
16579;SDS011;8402;51.466;6.806;2023-04-28T04:49:09;16.17;;;9.47;;
16579;SDS011;8402;51.466;6.806;2023-04-28T04:51:39;16.57;;;9.10;;
16579;SDS011;8402;51.466;6.806;2023-04-28T04:54:09;16.90;;;9.50;;
16579;SDS011;8402;51.466;6.806;2023-04-28T04:56:43;18.47;;;9.83;;
16579;SDS011;8402;51.466;6.806;2023-04-28T04:59:17;16.53;;;9.10;;
16579;SDS011;8402;51.466;6.806;2023-04-28T05:01:47;16.50;;;9.80;;
16579;SDS011;8402;51.466;6.806;2023-04-28T05:04:17;18.33;;;9.80;;
16579;SDS011;8402;51.466;6.806;2023-04-28T05:06:48;17.40;;;9.93;;
16579;SDS011;8402;51.466;6.806;2023-04-28T05:09:18;18.80;;;10.50;;
16579;SDS011;8402;51.466;6.806;2023-04-28T05:11:51;19.47;;;10.40;;
16579;SDS011;8402;51.466;6.806;2023-04-28T05:14:21;19.03;;;9.87;;
16579;SDS011;8402;51.466;6.806;2023-04-28T05:16:51;19.83;;;9.97;;
16579;SDS011;8402;51.466;6.806;2023-04-28T05:19:22;14.50;;;9.00;;
16579;SDS011;8402;51.466;6.806;2023-04-28T05:21:53;19.23;;;9.40;;
16579;SDS011;8402;51.466;6.806;2023-04-28T05:24:22;15.87;;;8.97;;
16579;SDS011;8402;51.466;6.806;2023-04-28T05:26:55;17.00;;;9.87;;
16579;SDS011;8402;51.466;6.806;2023-04-28T05:29:27;17.50;;;8.80;;
16579;SDS011;8402;51.466;6.806;2023-04-28T05:31:57;19.20;;;9.53;;
16579;SDS011;8402;51.466;6.806;2023-04-28T05:34:27;16.40;;;9.07;;
16579;SDS011;8402;51.466;6.806;2023-04-28T05:36:59;16.07;;;8.90;;
16579;SDS011;8402;51.466;6.806;2023-04-28T05:39:29;13.00;;;8.33;;
16579;SDS011;8402;51.466;6.806;2023-04-28T05:42:02;15.93;;;8.90;;
16579;SDS011;8402;51.466;6.806;2023-04-28T05:44:32;13.77;;;8.97;;
16579;SDS011;8402;51.466;6.806;2023-04-28T05:47:02;16.83;;;9.03;;
16579;SDS011;8402;51.466;6.806;2023-04-28T05:49:32;16.77;;;9.37;;
16579;SDS011;8402;51.466;6.806;2023-04-28T05:52:02;14.27;;;8.60;;
16579;SDS011;8402;51.466;6.806;2023-04-28T05:54:33;20.80;;;9.60;;
16579;SDS011;8402;51.466;6.806;2023-04-28T05:57:05;13.60;;;8.30;;
16579;SDS011;8402;51.466;6.806;2023-04-28T05:59:36;14.00;;;8.03;;
16579;SDS011;8402;51.466;6.806;2023-04-28T06:02:06;14.83;;;8.50;;
16579;SDS011;8402;51.466;6.806;2023-04-28T06:04:37;12.93;;;8.00;;
16579;SDS011;8402;51.466;6.806;2023-04-28T06:07:07;14.40;;;8.27;;
16579;SDS011;8402;51.466;6.806;2023-04-28T06:09:40;15.40;;;8.33;;
16579;SDS011;8402;51.466;6.806;2023-04-28T06:12:13;12.37;;;7.57;;
16579;SDS011;8402;51.466;6.806;2023-04-28T06:14:43;12.20;;;7.80;;
16579;SDS011;8402;51.466;6.806;2023-04-28T06:17:13;16.37;;;8.63;;
16579;SDS011;8402;51.466;6.806;2023-04-28T06:19:43;16.80;;;8.73;;
16579;SDS011;8402;51.466;6.806;2023-04-28T06:22:13;17.37;;;8.27;;
16579;SDS011;8402;51.466;6.806;2023-04-28T06:24:43;14.17;;;8.57;;
16579;SDS011;8402;51.466;6.806;2023-04-28T06:27:16;17.67;;;8.63;;
16579;SDS011;8402;51.466;6.806;2023-04-28T06:29:46;12.87;;;7.50;;
16579;SDS011;8402;51.466;6.806;2023-04-28T06:32:16;13.27;;;8.13;;
16579;SDS011;8402;51.466;6.806;2023-04-28T06:34:46;14.60;;;8.83;;
16579;SDS011;8402;51.466;6.806;2023-04-28T06:37:16;11.30;;;7.87;;
16579;SDS011;8402;51.466;6.806;2023-04-28T06:39:46;14.23;;;8.43;;
16579;SDS011;8402;51.466;6.806;2023-04-28T06:42:18;15.53;;;9.07;;
16579;SDS011;8402;51.466;6.806;2023-04-28T06:44:48;18.70;;;8.83;;
16579;SDS011;8402;51.466;6.806;2023-04-28T06:47:18;18.57;;;8.50;;
16579;SDS011;8402;51.466;6.806;2023-04-28T06:49:48;14.40;;;8.10;;
16579;SDS011;8402;51.466;6.806;2023-04-28T06:52:19;14.93;;;8.13;;
16579;SDS011;8402;51.466;6.806;2023-04-28T06:55:04;17.33;;;8.67;;
16579;SDS011;8402;51.466;6.806;2023-04-28T06:57:37;16.63;;;8.97;;
16579;SDS011;8402;51.466;6.806;2023-04-28T07:00:08;17.47;;;8.20;;
16579;SDS011;8402;51.466;6.806;2023-04-28T07:02:39;15.33;;;7.93;;
16579;SDS011;8402;51.466;6.806;2023-04-28T07:05:09;12.93;;;7.80;;
16579;SDS011;8402;51.466;6.806;2023-04-28T07:07:41;16.30;;;8.00;;
16579;SDS011;8402;51.466;6.806;2023-04-28T07:10:13;14.00;;;8.30;;
16579;SDS011;8402;51.466;6.806;2023-04-28T07:12:46;13.60;;;8.00;;
16579;SDS011;8402;51.466;6.806;2023-04-28T07:15:18;13.37;;;7.80;;
16579;SDS011;8402;51.466;6.806;2023-04-28T07:17:49;12.83;;;7.57;;
16579;SDS011;8402;51.466;6.806;2023-04-28T07:20:19;15.10;;;7.60;;
16579;SDS011;8402;51.466;6.806;2023-04-28T07:22:49;11.63;;;7.10;;
16579;SDS011;8402;51.466;6.806;2023-04-28T07:25:19;14.03;;;7.53;;
16579;SDS011;8402;51.466;6.806;2023-04-28T07:27:53;11.23;;;7.33;;
16579;SDS011;8402;51.466;6.806;2023-04-28T07:30:23;12.40;;;7.27;;
16579;SDS011;8402;51.466;6.806;2023-04-28T07:32:53;11.27;;;6.63;;
16579;SDS011;8402;51.466;6.806;2023-04-28T07:35:24;9.30;;;6.20;;
16579;SDS011;8402;51.466;6.806;2023-04-28T07:37:54;10.43;;;6.17;;
16579;SDS011;8402;51.466;6.806;2023-04-28T07:40:25;12.23;;;6.40;;
16579;SDS011;8402;51.466;6.806;2023-04-28T07:42:57;11.27;;;6.43;;
16579;SDS011;8402;51.466;6.806;2023-04-28T07:45:28;10.33;;;6.13;;
16579;SDS011;8402;51.466;6.806;2023-04-28T07:47:58;11.50;;;6.37;;
16579;SDS011;8402;51.466;6.806;2023-04-28T07:50:28;10.57;;;5.60;;
16579;SDS011;8402;51.466;6.806;2023-04-28T07:52:58;10.13;;;5.80;;
16579;SDS011;8402;51.466;6.806;2023-04-28T07:55:28;10.37;;;5.80;;
16579;SDS011;8402;51.466;6.806;2023-04-28T07:58:01;10.33;;;5.77;;
16579;SDS011;8402;51.466;6.806;2023-04-28T08:00:31;11.43;;;5.77;;
16579;SDS011;8402;51.466;6.806;2023-04-28T08:03:01;11.40;;;5.87;;
16579;SDS011;8402;51.466;6.806;2023-04-28T08:05:31;8.80;;;5.90;;
16579;SDS011;8402;51.466;6.806;2023-04-28T08:08:01;8.67;;;5.30;;
16579;SDS011;8402;51.466;6.806;2023-04-28T08:10:31;12.97;;;5.47;;
16579;SDS011;8402;51.466;6.806;2023-04-28T08:13:04;8.97;;;6.00;;
16579;SDS011;8402;51.466;6.806;2023-04-28T08:15:34;9.73;;;5.60;;
16579;SDS011;8402;51.466;6.806;2023-04-28T08:18:04;9.30;;;5.87;;
16579;SDS011;8402;51.466;6.806;2023-04-28T08:20:34;12.37;;;6.00;;
16579;SDS011;8402;51.466;6.806;2023-04-28T08:23:04;10.03;;;5.30;;
16579;SDS011;8402;51.466;6.806;2023-04-28T08:25:34;8.17;;;5.50;;
16579;SDS011;8402;51.466;6.806;2023-04-28T08:28:06;7.67;;;5.50;;
16579;SDS011;8402;51.466;6.806;2023-04-28T08:30:36;9.20;;;5.30;;
16579;SDS011;8402;51.466;6.806;2023-04-28T08:33:06;8.30;;;5.40;;
16579;SDS011;8402;51.466;6.806;2023-04-28T08:35:36;9.77;;;5.40;;
16579;SDS011;8402;51.466;6.806;2023-04-28T08:38:07;8.80;;;5.50;;
16579;SDS011;8402;51.466;6.806;2023-04-28T08:40:39;11.23;;;5.27;;
16579;SDS011;8402;51.466;6.806;2023-04-28T08:43:12;6.70;;;4.93;;
16579;SDS011;8402;51.466;6.806;2023-04-28T08:45:42;8.23;;;5.20;;
16579;SDS011;8402;51.466;6.806;2023-04-28T08:48:16;8.93;;;5.50;;
16579;SDS011;8402;51.466;6.806;2023-04-28T08:50:50;10.73;;;5.53;;
16579;SDS011;8402;51.466;6.806;2023-04-28T08:53:22;10.97;;;6.30;;
16579;SDS011;8402;51.466;6.806;2023-04-28T08:55:54;11.37;;;5.87;;
16579;SDS011;8402;51.466;6.806;2023-04-28T08:58:28;10.90;;;5.70;;
16579;SDS011;8402;51.466;6.806;2023-04-28T09:00:57;7.90;;;5.63;;
16579;SDS011;8402;51.466;6.806;2023-04-28T09:03:28;8.70;;;4.50;;
16579;SDS011;8402;51.466;6.806;2023-04-28T09:06:00;8.70;;;5.50;;
16579;SDS011;8402;51.466;6.806;2023-04-28T09:08:30;10.00;;;5.63;;
16579;SDS011;8402;51.466;6.806;2023-04-28T09:11:07;7.73;;;5.30;;
16579;SDS011;8402;51.466;6.806;2023-04-28T09:13:41;12.03;;;5.40;;
16579;SDS011;8402;51.466;6.806;2023-04-28T09:16:11;9.83;;;5.80;;
16579;SDS011;8402;51.466;6.806;2023-04-28T09:18:44;10.90;;;6.17;;
16579;SDS011;8402;51.466;6.806;2023-04-28T09:21:25;10.40;;;6.03;;
16579;SDS011;8402;51.466;6.806;2023-04-28T09:23:55;10.67;;;6.13;;
16579;SDS011;8402;51.466;6.806;2023-04-28T09:26:25;10.23;;;6.10;;
16579;SDS011;8402;51.466;6.806;2023-04-28T09:29:03;12.80;;;7.03;;
16579;SDS011;8402;51.466;6.806;2023-04-28T09:31:42;11.53;;;6.50;;
16579;SDS011;8402;51.466;6.806;2023-04-28T09:34:13;8.50;;;5.70;;
16579;SDS011;8402;51.466;6.806;2023-04-28T09:36:43;9.80;;;6.60;;
16579;SDS011;8402;51.466;6.806;2023-04-28T09:39:14;11.53;;;6.53;;
16579;SDS011;8402;51.466;6.806;2023-04-28T09:41:56;10.90;;;6.57;;
16579;SDS011;8402;51.466;6.806;2023-04-28T09:44:31;12.37;;;6.53;;
16579;SDS011;8402;51.466;6.806;2023-04-28T09:47:02;13.13;;;6.73;;
16579;SDS011;8402;51.466;6.806;2023-04-28T09:49:53;14.00;;;6.83;;
16579;SDS011;8402;51.466;6.806;2023-04-28T09:52:25;10.40;;;6.50;;
16579;SDS011;8402;51.466;6.806;2023-04-28T09:54:55;16.00;;;7.33;;
16579;SDS011;8402;51.466;6.806;2023-04-28T09:57:26;17.07;;;7.60;;
16579;SDS011;8402;51.466;6.806;2023-04-28T10:00:03;11.73;;;7.37;;
16579;SDS011;8402;51.466;6.806;2023-04-28T10:02:35;11.33;;;7.27;;
16579;SDS011;8402;51.466;6.806;2023-04-28T10:05:09;15.80;;;8.43;;
16579;SDS011;8402;51.466;6.806;2023-04-28T10:07:42;15.40;;;7.77;;
16579;SDS011;8402;51.466;6.806;2023-04-28T10:10:12;12.77;;;8.20;;
16579;SDS011;8402;51.466;6.806;2023-04-28T10:12:44;13.20;;;8.23;;
16579;SDS011;8402;51.466;6.806;2023-04-28T10:15:17;12.53;;;8.17;;
16579;SDS011;8402;51.466;6.806;2023-04-28T10:17:48;14.67;;;8.13;;
16579;SDS011;8402;51.466;6.806;2023-04-28T10:20:19;15.17;;;8.47;;
16579;SDS011;8402;51.466;6.806;2023-04-28T10:22:55;11.27;;;6.93;;
16579;SDS011;8402;51.466;6.806;2023-04-28T10:25:33;15.67;;;8.97;;
16579;SDS011;8402;51.466;6.806;2023-04-28T10:28:05;15.10;;;9.27;;
16579;SDS011;8402;51.466;6.806;2023-04-28T10:30:39;13.53;;;8.47;;
16579;SDS011;8402;51.466;6.806;2023-04-28T10:35:57;15.67;;;9.37;;
16579;SDS011;8402;51.466;6.806;2023-04-28T10:38:29;13.10;;;9.10;;
16579;SDS011;8402;51.466;6.806;2023-04-28T10:40:59;13.40;;;8.63;;
16579;SDS011;8402;51.466;6.806;2023-04-28T10:43:36;21.73;;;9.30;;
16579;SDS011;8402;51.466;6.806;2023-04-28T10:46:11;15.37;;;9.13;;
16579;SDS011;8402;51.466;6.806;2023-04-28T10:48:53;12.50;;;8.47;;
16579;SDS011;8402;51.466;6.806;2023-04-28T10:51:27;18.90;;;9.43;;
16579;SDS011;8402;51.466;6.806;2023-04-28T10:59:48;16.33;;;9.73;;
16579;SDS011;8402;51.466;6.806;2023-04-28T11:02:38;18.10;;;11.27;;
16579;SDS011;8402;51.466;6.806;2023-04-28T11:05:14;17.47;;;10.53;;
16579;SDS011;8402;51.466;6.806;2023-04-28T11:11:11;29.40;;;13.20;;
16579;SDS011;8402;51.466;6.806;2023-04-28T11:13:45;27.40;;;13.57;;
16579;SDS011;8402;51.466;6.806;2023-04-28T11:16:19;22.77;;;12.73;;
16579;SDS011;8402;51.466;6.806;2023-04-28T11:18:54;21.33;;;12.37;;
16579;SDS011;8402;51.466;6.806;2023-04-28T11:21:31;18.87;;;11.47;;
16579;SDS011;8402;51.466;6.806;2023-04-28T11:24:06;19.10;;;11.77;;
16579;SDS011;8402;51.466;6.806;2023-04-28T11:26:38;21.23;;;13.20;;
16579;SDS011;8402;51.466;6.806;2023-04-28T11:29:09;22.57;;;13.43;;
16579;SDS011;8402;51.466;6.806;2023-04-28T11:31:40;19.50;;;13.53;;
16579;SDS011;8402;51.466;6.806;2023-04-28T11:34:20;21.73;;;13.47;;
16579;SDS011;8402;51.466;6.806;2023-04-28T11:36:52;19.30;;;13.30;;
16579;SDS011;8402;51.466;6.806;2023-04-28T11:39:25;17.43;;;13.37;;
16579;SDS011;8402;51.466;6.806;2023-04-28T11:41:57;21.97;;;12.83;;
16579;SDS011;8402;51.466;6.806;2023-04-28T11:44:28;19.00;;;11.97;;
16579;SDS011;8402;51.466;6.806;2023-04-28T11:47:00;22.33;;;12.93;;
16579;SDS011;8402;51.466;6.806;2023-04-28T11:49:40;19.67;;;12.13;;
16579;SDS011;8402;51.466;6.806;2023-04-28T11:52:12;19.83;;;12.27;;
16579;SDS011;8402;51.466;6.806;2023-04-28T11:54:42;17.10;;;12.97;;
16579;SDS011;8402;51.466;6.806;2023-04-28T11:57:21;22.13;;;13.70;;
16579;SDS011;8402;51.466;6.806;2023-04-28T11:59:52;21.27;;;13.53;;
16579;SDS011;8402;51.466;6.806;2023-04-28T12:02:25;21.43;;;13.87;;
16579;SDS011;8402;51.466;6.806;2023-04-28T12:05:03;20.43;;;13.13;;
16579;SDS011;8402;51.466;6.806;2023-04-28T12:07:38;22.70;;;14.03;;
16579;SDS011;8402;51.466;6.806;2023-04-28T12:10:11;19.93;;;14.33;;
16579;SDS011;8402;51.466;6.806;2023-04-28T12:12:44;21.87;;;13.27;;
16579;SDS011;8402;51.466;6.806;2023-04-28T12:15:18;20.90;;;13.43;;
16579;SDS011;8402;51.466;6.806;2023-04-28T12:17:50;21.23;;;14.83;;
16579;SDS011;8402;51.466;6.806;2023-04-28T12:20:35;19.80;;;13.27;;
16579;SDS011;8402;51.466;6.806;2023-04-28T12:23:08;18.30;;;12.80;;
16579;SDS011;8402;51.466;6.806;2023-04-28T12:25:44;19.30;;;12.60;;
16579;SDS011;8402;51.466;6.806;2023-04-28T12:28:15;16.87;;;12.23;;
16579;SDS011;8402;51.466;6.806;2023-04-28T12:30:45;17.00;;;11.90;;
16579;SDS011;8402;51.466;6.806;2023-04-28T12:33:21;14.90;;;11.33;;
16579;SDS011;8402;51.466;6.806;2023-04-28T12:35:56;14.75;;;11.57;;
16579;SDS011;8402;51.466;6.806;2023-04-28T12:38:27;13.60;;;10.30;;
16579;SDS011;8402;51.466;6.806;2023-04-28T12:40:57;14.27;;;10.57;;
16579;SDS011;8402;51.466;6.806;2023-04-28T12:43:28;13.48;;;9.60;;
16579;SDS011;8402;51.466;6.806;2023-04-28T12:45:58;14.93;;;9.43;;
16579;SDS011;8402;51.466;6.806;2023-04-28T12:48:29;13.18;;;9.50;;
16579;SDS011;8402;51.466;6.806;2023-04-28T12:51:03;13.75;;;9.07;;
16579;SDS011;8402;51.466;6.806;2023-04-28T12:53:34;14.73;;;7.97;;
16579;SDS011;8402;51.466;6.806;2023-04-28T12:56:04;17.08;;;8.95;;
16579;SDS011;8402;51.466;6.806;2023-04-28T12:58:35;12.55;;;7.80;;
16579;SDS011;8402;51.466;6.806;2023-04-28T13:01:08;40.35;;;25.45;;
16579;SDS011;8402;51.466;6.806;2023-04-28T13:03:39;11.70;;;9.48;;
16579;SDS011;8402;51.466;6.806;2023-04-28T13:06:12;11.13;;;8.65;;
16579;SDS011;8402;51.466;6.806;2023-04-28T13:08:45;11.48;;;8.55;;
16579;SDS011;8402;51.466;6.806;2023-04-28T13:11:15;10.15;;;8.50;;
16579;SDS011;8402;51.466;6.806;2023-04-28T13:13:48;12.00;;;8.73;;
16579;SDS011;8402;51.466;6.806;2023-04-28T13:16:18;13.18;;;8.95;;
16579;SDS011;8402;51.466;6.806;2023-04-28T13:18:50;11.32;;;8.23;;
16579;SDS011;8402;51.466;6.806;2023-04-28T13:21:23;12.07;;;8.65;;
16579;SDS011;8402;51.466;6.806;2023-04-28T13:23:54;14.70;;;8.00;;
16579;SDS011;8402;51.466;6.806;2023-04-28T13:26:24;11.50;;;8.80;;
16579;SDS011;8402;51.466;6.806;2023-04-28T13:28:56;11.73;;;8.45;;
16579;SDS011;8402;51.466;6.806;2023-04-28T13:31:26;10.40;;;8.20;;
16579;SDS011;8402;51.466;6.806;2023-04-28T13:33:56;11.43;;;7.80;;
16579;SDS011;8402;51.466;6.806;2023-04-28T13:36:30;13.38;;;8.13;;
16579;SDS011;8402;51.466;6.806;2023-04-28T13:39:01;10.38;;;7.15;;
16579;SDS011;8402;51.466;6.806;2023-04-28T13:41:32;10.25;;;7.93;;
16579;SDS011;8402;51.466;6.806;2023-04-28T13:44:02;9.02;;;7.20;;
16579;SDS011;8402;51.466;6.806;2023-04-28T13:46:32;11.70;;;7.53;;
16579;SDS011;8402;51.466;6.806;2023-04-28T13:49:02;8.93;;;7.32;;
16579;SDS011;8402;51.466;6.806;2023-04-28T13:51:35;11.10;;;7.50;;
16579;SDS011;8402;51.466;6.806;2023-04-28T13:54:05;9.85;;;6.85;;
16579;SDS011;8402;51.466;6.806;2023-04-28T13:56:37;9.18;;;7.22;;
16579;SDS011;8402;51.466;6.806;2023-04-28T13:59:07;12.40;;;6.95;;
16579;SDS011;8402;51.466;6.806;2023-04-28T14:01:37;8.23;;;6.80;;
16579;SDS011;8402;51.466;6.806;2023-04-28T14:04:06;8.57;;;6.63;;
16579;SDS011;8402;51.466;6.806;2023-04-28T14:06:40;9.70;;;6.70;;
16579;SDS011;8402;51.466;6.806;2023-04-28T14:09:12;10.07;;;7.00;;
16579;SDS011;8402;51.466;6.806;2023-04-28T14:11:42;8.18;;;6.85;;
16579;SDS011;8402;51.466;6.806;2023-04-28T14:14:14;10.88;;;7.38;;
16579;SDS011;8402;51.466;6.806;2023-04-28T14:16:44;9.82;;;7.13;;
16579;SDS011;8402;51.466;6.806;2023-04-28T14:19:15;8.75;;;6.78;;
16579;SDS011;8402;51.466;6.806;2023-04-28T14:21:49;12.13;;;7.55;;
16579;SDS011;8402;51.466;6.806;2023-04-28T14:24:19;10.07;;;7.45;;
16579;SDS011;8402;51.466;6.806;2023-04-28T14:26:49;8.43;;;6.82;;
16579;SDS011;8402;51.466;6.806;2023-04-28T14:29:20;8.45;;;6.47;;
16579;SDS011;8402;51.466;6.806;2023-04-28T14:31:50;7.65;;;5.50;;
16579;SDS011;8402;51.466;6.806;2023-04-28T14:34:20;6.68;;;4.93;;
16579;SDS011;8402;51.466;6.806;2023-04-28T14:36:52;7.13;;;5.68;;
16579;SDS011;8402;51.466;6.806;2023-04-28T14:39:23;8.60;;;6.18;;
16579;SDS011;8402;51.466;6.806;2023-04-28T14:41:52;8.88;;;6.25;;
16579;SDS011;8402;51.466;6.806;2023-04-28T14:44:22;7.38;;;6.00;;
16579;SDS011;8402;51.466;6.806;2023-04-28T14:46:53;9.85;;;6.60;;
16579;SDS011;8402;51.466;6.806;2023-04-28T14:49:22;6.97;;;5.63;;
16579;SDS011;8402;51.466;6.806;2023-04-28T14:51:55;7.07;;;5.80;;
16579;SDS011;8402;51.466;6.806;2023-04-28T14:54:26;10.40;;;5.60;;
16579;SDS011;8402;51.466;6.806;2023-04-28T14:56:56;6.65;;;5.45;;
16579;SDS011;8402;51.466;6.806;2023-04-28T14:59:27;7.13;;;4.97;;
16579;SDS011;8402;51.466;6.806;2023-04-28T15:01:57;7.25;;;4.38;;
16579;SDS011;8402;51.466;6.806;2023-04-28T15:04:27;6.80;;;3.70;;
16579;SDS011;8402;51.466;6.806;2023-04-28T15:07:00;5.53;;;3.83;;
16579;SDS011;8402;51.466;6.806;2023-04-28T15:09:30;5.55;;;4.55;;
16579;SDS011;8402;51.466;6.806;2023-04-28T15:12:00;6.97;;;5.07;;
16579;SDS011;8402;51.466;6.806;2023-04-28T15:14:29;7.47;;;4.65;;
16579;SDS011;8402;51.466;6.806;2023-04-28T15:17:00;7.55;;;4.90;;
16579;SDS011;8402;51.466;6.806;2023-04-28T15:19:30;6.30;;;5.13;;
16579;SDS011;8402;51.466;6.806;2023-04-28T15:22:02;9.27;;;6.57;;
16579;SDS011;8402;51.466;6.806;2023-04-28T15:24:32;8.57;;;6.05;;
16579;SDS011;8402;51.466;6.806;2023-04-28T15:27:03;13.48;;;6.50;;